Andrews Air Force Base
KADW : now visible

Airfield :











YOU CAN JOIN US ON...

 
LOGIN :

Register | Disclaimer

   EN    FR    IT 

 









Legend :    VFR   Marginal VFR   IFR   Intensive IFR   Very Intensive IFR
Visi :
Ceiling :
>= 8 km
>= 3000ft
5 to 8 km
1000 to 3000 ft
1500m to 5 km
500 to 1000 ft
800 to 1500m
200 to 500 ft
< 800m
< 200 ft
Symbols :   Thunderstorms  Fog  Heavy snow  Heavy precipitations  Wind > 20 kt






- Airport Elevation : 280 ft


KADW - Andrews Air Force Base

CURRENT METAR :
  • 180456Z AUTO 00000KT 10SM CLR 15/08 A3005 RMK AO2 SLP182 T01480083 402510139 $

EXPIRED METARs :
  • 180356Z AUTO 20003KT 10SM CLR 14/09 A3005 RMK AO2 SLP182 T01430085 $
  • 180256Z AUTO 19003KT 10SM CLR 15/09 A3005 RMK AO2 SLP182 T01450087 53014 $

TAF TAF KADW
Valid from the 18 at 01:00 until the 19 at 07:00 UTC


180100Z 1801/1907 23006KT 9999 FEW250 QNH3003INS
BECMG 1812/1813 20012G18KT 9999 SCT170 QNH2986INS
BECMG 1903/1904 21010KT 9999 BKN120 QNH2984INS
TEMPO 1904/1907 24015G25KT 8000 -SHRA TX29/1820Z TN14/1810Z
KZDC FIR / North America



MET'MAP, your aeronautical weather chart ! - Copyright ORBIFLY December 2007 - Disclaimer

ORBIFLY MET'MAP TEAM :

Programming & Development : Alexandra Zaïnal
Concept & original design : Baudouin d'Aumeries
Assistance for programming : Marc-Olivier Méhu
Technical & hardware support : Manuel Goepfert

Contact : metmap@orbifly.com




SOURCES & CREDITS :

   NOAA       Earth
Advisory